Time;durP1;ratioP1;P1;durP2;ratioP2;P2;SDS_P1;SDS_P2;PMS_P1;PMS_P2;Temp;Humidity;BMP_temperature;BMP_pressure;BME280_temperature;BME280_humidity;BME280_pressure;Samples;Min_cycle;Max_cycle;Signal;HPM_P1;HPM_P2
2021/01/01 00:01:59;;;;;;;20.80;13.60;;;;;;;;;;5004382;28;20728;-77
2021/01/01 00:04:25;;;;;;;23.03;14.20;;;;;;;;;;4989170;28;20270;-78
2021/01/01 00:06:51;;;;;;;30.83;18.60;;;;;;;;;;5007756;28;20342;-77
2021/01/01 00:09:19;;;;;;;24.53;15.07;;;;;;;;;;5021177;28;20864;-77
2021/01/01 00:11:51;;;;;;;23.20;14.90;;;;;;;;;;5028033;28;20371;-76
2021/01/01 00:14:18;;;;;;;22.13;13.50;;;;;;;;;;5027846;28;20276;-77
2021/01/01 00:16:44;;;;;;;20.00;13.23;;;;;;;;;;5011905;28;20371;-77
2021/01/01 00:19:11;;;;;;;20.00;12.63;;;;;;;;;;5008762;28;20272;-77
2021/01/01 00:21:37;;;;;;;21.33;12.57;;;;;;;;;;5012317;28;20288;-77
2021/01/01 00:24:04;;;;;;;20.03;12.13;;;;;;;;;;5014852;28;20776;-77
2021/01/01 00:26:30;;;;;;;16.50;10.87;;;;;;;;;;5007538;28;20264;-77
2021/01/01 00:28:56;;;;;;;17.33;9.20;;;;;;;;;;5013300;28;20272;-77
2021/01/01 00:31:26;;;;;;;13.67;8.43;;;;;;;;;;5017083;28;20273;-77
2021/01/01 00:33:52;;;;;;;11.73;7.30;;;;;;;;;;5023920;28;20292;-77
2021/01/01 00:36:21;;;;;;;11.33;6.53;;;;;;;;;;4999226;28;20392;-77
2021/01/01 00:38:51;;;;;;;11.87;6.80;;;;;;;;;;5020470;28;21017;-77
2021/01/01 00:41:29;;;;;;;12.57;6.47;;;;;;;;;;5025565;28;20396;-77
2021/01/01 00:43:56;;;;;;;10.43;5.93;;;;;;;;;;5020831;28;20267;-77
2021/01/01 00:46:22;;;;;;;12.80;6.87;;;;;;;;;;5028233;28;20324;-78
2021/01/01 00:48:49;;;;;;;10.43;6.17;;;;;;;;;;5034939;28;20264;-77
2021/01/01 00:51:15;;;;;;;11.47;6.43;;;;;;;;;;5032562;28;20314;-77
2021/01/01 00:53:41;;;;;;;9.87;6.47;;;;;;;;;;5024856;28;20364;-77
2021/01/01 00:56:07;;;;;;;11.37;7.07;;;;;;;;;;5016123;28;20402;-77
2021/01/01 00:58:33;;;;;;;14.27;7.93;;;;;;;;;;5016894;28;20760;-77
2021/01/01 01:00:59;;;;;;;12.53;8.03;;;;;;;;;;5015326;28;20292;-77
2021/01/01 01:03:25;;;;;;;18.47;12.10;;;;;;;;;;5014557;28;20634;-77
2021/01/01 01:05:51;;;;;;;16.43;9.40;;;;;;;;;;5006409;28;20288;-77
2021/01/01 01:08:18;;;;;;;18.97;9.87;;;;;;;;;;5010348;28;20281;-77
2021/01/01 01:10:45;;;;;;;14.57;8.23;;;;;;;;;;5017233;28;20760;-77
2021/01/01 01:13:11;;;;;;;13.27;7.33;;;;;;;;;;5021964;28;20268;-77
2021/01/01 01:15:37;;;;;;;16.03;10.30;;;;;;;;;;5026916;28;20314;-77
2021/01/01 01:18:04;;;;;;;14.53;8.37;;;;;;;;;;5016501;28;20759;-77
2021/01/01 01:20:30;;;;;;;15.40;7.97;;;;;;;;;;5014553;28;20292;-77
2021/01/01 01:22:56;;;;;;;12.97;7.43;;;;;;;;;;5023756;28;20345;-77
2021/01/01 01:25:22;;;;;;;13.53;7.07;;;;;;;;;;5019105;28;20284;-77
2021/01/01 01:27:48;;;;;;;12.70;7.17;;;;;;;;;;5012318;28;20400;-77
2021/01/01 01:30:15;;;;;;;18.47;9.57;;;;;;;;;;5010472;28;20282;-77
2021/01/01 01:32:41;;;;;;;16.50;9.10;;;;;;;;;;5010593;28;20261;-77
2021/01/01 01:35:07;;;;;;;13.93;6.63;;;;;;;;;;5014504;28;20736;-77
2021/01/01 01:37:33;;;;;;;13.17;6.70;;;;;;;;;;5011955;28;20265;-77
2021/01/01 01:40:00;;;;;;;11.53;5.83;;;;;;;;;;5022201;28;20268;-77
2021/01/01 01:42:26;;;;;;;10.63;6.67;;;;;;;;;;5029279;28;20325;-77
2021/01/01 01:44:52;;;;;;;13.33;6.77;;;;;;;;;;5015775;28;20268;-77
2021/01/01 01:47:20;;;;;;;8.27;5.00;;;;;;;;;;5014529;28;20329;-77
2021/01/01 01:49:47;;;;;;;7.93;4.73;;;;;;;;;;5011768;28;20306;-77
2021/01/01 01:52:13;;;;;;;8.20;4.73;;;;;;;;;;5011443;28;20268;-77
2021/01/01 01:54:39;;;;;;;8.40;4.73;;;;;;;;;;5016489;28;20501;-77
2021/01/01 01:57:06;;;;;;;9.97;5.50;;;;;;;;;;5031032;28;20652;-77
2021/01/01 01:59:33;;;;;;;11.17;6.77;;;;;;;;;;5022367;28;20774;-77
2021/01/01 02:01:59;;;;;;;11.53;6.03;;;;;;;;;;5028198;28;20303;-77
2021/01/01 02:04:25;;;;;;;10.97;5.87;;;;;;;;;;5009611;28;20261;-77
2021/01/01 02:06:51;;;;;;;11.27;7.10;;;;;;;;;;5013540;28;20828;-77
2021/01/01 02:09:17;;;;;;;10.50;5.43;;;;;;;;;;5026585;28;20501;-77
2021/01/01 02:11:43;;;;;;;10.07;5.63;;;;;;;;;;5018712;28;20358;-76
2021/01/01 02:14:10;;;;;;;11.53;5.00;;;;;;;;;;5030485;28;20284;-75
2021/01/01 02:16:37;;;;;;;12.90;7.13;;;;;;;;;;5008741;28;20285;-76
2021/01/01 02:19:03;;;;;;;11.27;6.70;;;;;;;;;;5018095;28;20298;-76
2021/01/01 02:21:30;;;;;;;12.03;7.80;;;;;;;;;;5017671;28;20358;-76
2021/01/01 02:23:56;;;;;;;12.63;7.83;;;;;;;;;;5008412;28;20304;-76
2021/01/01 02:26:22;;;;;;;11.63;7.13;;;;;;;;;;5005044;28;20304;-76
2021/01/01 02:28:48;;;;;;;12.93;7.83;;;;;;;;;;5016679;28;20264;-76
2021/01/01 02:31:14;;;;;;;13.67;7.90;;;;;;;;;;5015659;28;20735;-76
2021/01/01 02:33:40;;;;;;;14.23;8.40;;;;;;;;;;5012354;28;20296;-76
2021/01/01 02:36:06;;;;;;;13.03;8.40;;;;;;;;;;5017381;28;20795;-76
2021/01/01 02:38:34;;;;;;;14.70;8.80;;;;;;;;;;5024478;28;20632;-76
2021/01/01 02:41:01;;;;;;;12.57;7.60;;;;;;;;;;5011794;28;20288;-76
2021/01/01 02:43:27;;;;;;;14.10;7.43;;;;;;;;;;5007784;28;20265;-76
2021/01/01 02:45:53;;;;;;;13.67;7.70;;;;;;;;;;5017512;28;20257;-76
2021/01/01 02:48:20;;;;;;;15.30;8.87;;;;;;;;;;5034114;28;20264;-76
2021/01/01 02:50:46;;;;;;;15.50;8.20;;;;;;;;;;5010619;28;20633;-76
2021/01/01 02:53:13;;;;;;;13.67;7.63;;;;;;;;;;5009474;28;20268;-76
2021/01/01 02:55:40;;;;;;;14.33;8.37;;;;;;;;;;5040000;28;20275;-76
2021/01/01 02:58:06;;;;;;;13.03;7.27;;;;;;;;;;5025296;28;20265;-77
2021/01/01 03:00:33;;;;;;;15.17;7.33;;;;;;;;;;5011772;28;20288;-76
2021/01/01 03:02:59;;;;;;;13.73;8.13;;;;;;;;;;5010455;28;20264;-77
2021/01/01 03:05:25;;;;;;;14.57;7.43;;;;;;;;;;5006369;28;20265;-77
2021/01/01 03:07:51;;;;;;;11.97;7.77;;;;;;;;;;4990063;28;20265;-77
2021/01/01 03:10:18;;;;;;;15.93;8.07;;;;;;;;;;4989990;28;20278;-76
2021/01/01 03:12:44;;;;;;;12.37;6.87;;;;;;;;;;4990971;28;20261;-77
2021/01/01 03:15:11;;;;;;;16.03;8.47;;;;;;;;;;5005628;28;20793;-76
2021/01/01 03:17:37;;;;;;;13.60;8.00;;;;;;;;;;5009250;28;20308;-76
2021/01/01 03:20:04;;;;;;;14.73;7.77;;;;;;;;;;5009958;28;20359;-76
2021/01/01 03:22:30;;;;;;;12.63;7.87;;;;;;;;;;5008956;28;20419;-77
2021/01/01 03:24:56;;;;;;;13.63;7.87;;;;;;;;;;5009341;28;20790;-77
2021/01/01 03:27:22;;;;;;;23.80;14.80;;;;;;;;;;5010064;28;20269;-77
2021/01/01 03:29:48;;;;;;;16.57;9.37;;;;;;;;;;5008624;28;20265;-76
2021/01/01 03:32:14;;;;;;;16.47;9.77;;;;;;;;;;5008483;28;20770;-77
2021/01/01 03:34:40;;;;;;;18.07;9.00;;;;;;;;;;5009267;28;20312;-77
2021/01/01 03:37:06;;;;;;;17.60;9.63;;;;;;;;;;5008920;28;20273;-77
2021/01/01 03:39:32;;;;;;;19.77;10.20;;;;;;;;;;5008022;28;20269;-76
2021/01/01 03:41:58;;;;;;;16.03;9.40;;;;;;;;;;5008582;28;20312;-76
2021/01/01 03:44:25;;;;;;;14.03;8.27;;;;;;;;;;5008300;28;20669;-77
2021/01/01 03:46:51;;;;;;;13.00;8.10;;;;;;;;;;5007972;28;20299;-76
2021/01/01 03:49:17;;;;;;;14.27;7.93;;;;;;;;;;5008637;28;20261;-76
2021/01/01 03:51:43;;;;;;;11.07;7.20;;;;;;;;;;5008042;28;20995;-77
2021/01/01 03:54:09;;;;;;;12.93;7.90;;;;;;;;;;5007913;28;20296;-77
2021/01/01 03:56:35;;;;;;;11.20;7.43;;;;;;;;;;4999800;28;20371;-77
2021/01/01 03:59:01;;;;;;;12.30;7.30;;;;;;;;;;5009671;28;20345;-77
2021/01/01 04:01:27;;;;;;;12.60;8.03;;;;;;;;;;5003219;28;20669;-77
2021/01/01 04:03:53;;;;;;;12.57;7.47;;;;;;;;;;5002996;28;20323;-77
2021/01/01 04:06:19;;;;;;;11.87;7.10;;;;;;;;;;5007783;28;20719;-76
2021/01/01 04:08:46;;;;;;;12.77;7.37;;;;;;;;;;5003654;28;20356;-76
2021/01/01 04:11:12;;;;;;;12.27;7.30;;;;;;;;;;5006448;28;20277;-77
2021/01/01 04:13:38;;;;;;;14.17;8.23;;;;;;;;;;5006993;28;20359;-77
2021/01/01 04:16:04;;;;;;;10.97;7.20;;;;;;;;;;5007482;28;20265;-77
2021/01/01 04:18:30;;;;;;;11.77;6.90;;;;;;;;;;5008462;28;20275;-77
2021/01/01 04:20:56;;;;;;;10.63;6.70;;;;;;;;;;5008530;28;20288;-77
2021/01/01 04:23:22;;;;;;;10.90;6.80;;;;;;;;;;5007159;28;20648;-76
2021/01/01 04:25:48;;;;;;;13.00;7.33;;;;;;;;;;5006610;28;20331;-76
2021/01/01 04:28:14;;;;;;;13.47;7.90;;;;;;;;;;5006505;28;20285;-77
2021/01/01 04:30:41;;;;;;;12.77;7.73;;;;;;;;;;5007544;28;20265;-77
2021/01/01 04:33:07;;;;;;;13.13;8.53;;;;;;;;;;5007579;28;20269;-77
2021/01/01 04:35:33;;;;;;;15.70;7.93;;;;;;;;;;5008754;28;20261;-77
2021/01/01 04:37:59;;;;;;;15.70;8.90;;;;;;;;;;5006875;28;20277;-77
2021/01/01 04:40:25;;;;;;;14.20;8.57;;;;;;;;;;5005093;28;20347;-77
2021/01/01 04:42:51;;;;;;;14.63;9.00;;;;;;;;;;4987665;28;20898;-77
2021/01/01 04:45:18;;;;;;;14.63;9.67;;;;;;;;;;4987778;28;20792;-76
2021/01/01 04:47:44;;;;;;;14.13;8.87;;;;;;;;;;4989379;28;20257;-76
2021/01/01 04:50:10;;;;;;;16.10;9.23;;;;;;;;;;4987803;28;20347;-77
2021/01/01 04:52:39;;;;;;;17.90;10.60;;;;;;;;;;4996483;28;20388;-77
2021/01/01 04:55:06;;;;;;;17.50;10.03;;;;;;;;;;5007076;28;20276;-76
2021/01/01 04:57:32;;;;;;;16.53;10.97;;;;;;;;;;5009592;28;20327;-76
2021/01/01 04:59:58;;;;;;;27.17;16.07;;;;;;;;;;5008948;28;20285;-77
2021/01/01 05:02:24;;;;;;;28.67;16.47;;;;;;;;;;4999114;28;20328;-77
2021/01/01 05:04:50;;;;;;;23.10;14.70;;;;;;;;;;5009956;28;20361;-76
2021/01/01 05:07:17;;;;;;;22.67;13.87;;;;;;;;;;5004309;28;20262;-77
2021/01/01 05:09:44;;;;;;;21.10;11.93;;;;;;;;;;4989685;28;20316;-76
2021/01/01 05:12:10;;;;;;;20.63;12.77;;;;;;;;;;4987865;28;20341;-76
2021/01/01 05:14:37;;;;;;;19.87;11.50;;;;;;;;;;4988420;28;20315;-76
2021/01/01 05:17:03;;;;;;;20.53;11.10;;;;;;;;;;5006175;28;20273;-77
2021/01/01 05:19:49;;;;;;;21.50;12.80;;;;;;;;;;5006888;28;20344;-77
2021/01/01 05:22:15;;;;;;;20.20;11.43;;;;;;;;;;5006720;28;20645;-77
2021/01/01 05:24:46;;;;;;;21.93;12.03;;;;;;;;;;5007136;28;20297;-77
2021/01/01 05:27:12;;;;;;;29.57;14.20;;;;;;;;;;5006902;28;20301;-76
2021/01/01 05:29:51;;;;;;;25.83;14.40;;;;;;;;;;5007242;28;20368;-77
2021/01/01 05:32:28;;;;;;;25.57;13.73;;;;;;;;;;5006579;28;20277;-77
2021/01/01 05:34:55;;;;;;;25.53;14.30;;;;;;;;;;5010358;28;20311;-77
2021/01/01 05:37:49;;;;;;;21.93;11.63;;;;;;;;;;5010189;28;20273;-77
2021/01/01 05:40:16;;;;;;;23.20;13.13;;;;;;;;;;4989252;28;20632;-77
2021/01/01 05:42:42;;;;;;;23.23;12.60;;;;;;;;;;4991067;28;20038;-77
2021/01/01 05:45:12;;;;;;;25.80;12.23;;;;;;;;;;4991530;28;20262;-77
2021/01/01 05:47:38;;;;;;;21.53;12.57;;;;;;;;;;5010054;28;20301;-77
2021/01/01 05:50:04;;;;;;;21.50;12.43;;;;;;;;;;5011346;28;20271;-77
2021/01/01 05:52:30;;;;;;;23.20;13.63;;;;;;;;;;5009219;28;20360;-76
2021/01/01 05:54:59;;;;;;;23.23;13.07;;;;;;;;;;5008981;28;20822;-77
2021/01/01 05:57:33;;;;;;;23.00;12.27;;;;;;;;;;5008595;28;20315;-77
2021/01/01 05:59:59;;;;;;;22.87;12.87;;;;;;;;;;5010556;28;20272;-76
2021/01/01 06:02:28;;;;;;;22.83;11.93;;;;;;;;;;5010580;28;20368;-77
2021/01/01 06:04:54;;;;;;;24.77;14.03;;;;;;;;;;5009603;28;20281;-76
2021/01/01 06:07:21;;;;;;;24.63;13.77;;;;;;;;;;5009189;28;20307;-76
2021/01/01 06:09:48;;;;;;;27.93;15.13;;;;;;;;;;5009180;28;20269;-77
2021/01/01 06:12:18;;;;;;;24.97;14.43;;;;;;;;;;5008855;28;20640;-76
2021/01/01 06:14:45;;;;;;;28.97;15.13;;;;;;;;;;5008453;28;20277;-77
2021/01/01 06:17:11;;;;;;;27.53;15.20;;;;;;;;;;5010206;28;20787;-77
2021/01/01 06:19:47;;;;;;;27.97;15.40;;;;;;;;;;5004824;28;20315;-77
2021/01/01 06:22:14;;;;;;;29.17;16.57;;;;;;;;;;4989602;28;20281;-77
2021/01/01 06:24:44;;;;;;;27.70;15.70;;;;;;;;;;5007107;28;20271;-77
2021/01/01 06:27:12;;;;;;;29.33;16.33;;;;;;;;;;5007987;28;20272;-76
2021/01/01 06:29:40;;;;;;;26.57;14.60;;;;;;;;;;5010545;28;20292;-77
2021/01/01 06:32:06;;;;;;;22.90;14.27;;;;;;;;;;5004470;28;20301;-77
2021/01/01 06:34:33;;;;;;;25.77;14.63;;;;;;;;;;4989779;28;20273;-77
2021/01/01 06:36:59;;;;;;;31.43;14.87;;;;;;;;;;5004290;28;20691;-77
2021/01/01 06:39:51;;;;;;;26.47;14.70;;;;;;;;;;5008815;28;20292;-77
2021/01/01 06:42:17;;;;;;;25.63;14.07;;;;;;;;;;5005096;28;20316;-77
2021/01/01 06:44:44;;;;;;;23.73;14.30;;;;;;;;;;5008846;28;20269;-77
2021/01/01 06:47:30;;;;;;;27.77;15.43;;;;;;;;;;5006837;28;20260;-77
2021/01/01 06:49:56;;;;;;;26.53;14.63;;;;;;;;;;4999479;28;20265;-77
2021/01/01 06:52:22;;;;;;;24.70;14.00;;;;;;;;;;5008100;28;20268;-76
2021/01/01 06:54:54;;;;;;;25.77;13.63;;;;;;;;;;5007838;28;20308;-76
2021/01/01 06:57:24;;;;;;;29.67;16.23;;;;;;;;;;5009655;28;20259;-77
2021/01/01 06:59:51;;;;;;;30.43;16.87;;;;;;;;;;5003958;28;20364;-78
2021/01/01 07:02:19;;;;;;;35.70;17.53;;;;;;;;;;4995777;28;20299;-76
2021/01/01 07:04:49;;;;;;;32.90;17.93;;;;;;;;;;5010674;28;20371;-77
2021/01/01 07:07:35;;;;;;;33.67;17.80;;;;;;;;;;5009032;28;20369;-76
2021/01/01 07:10:01;;;;;;;33.43;16.93;;;;;;;;;;5010048;28;20324;-77
2021/01/01 07:12:27;;;;;;;33.83;18.33;;;;;;;;;;5021362;28;20276;-77
2021/01/01 07:14:53;;;;;;;39.80;21.10;;;;;;;;;;5029129;28;20272;-78
2021/01/01 07:17:19;;;;;;;41.27;22.80;;;;;;;;;;5001093;28;20369;-76
2021/01/01 07:19:46;;;;;;;45.97;22.20;;;;;;;;;;5001512;28;20261;-76
2021/01/01 07:22:12;;;;;;;45.63;21.40;;;;;;;;;;5001549;28;20784;-77
2021/01/01 07:24:38;;;;;;;40.43;19.97;;;;;;;;;;5000006;28;20257;-77
2021/01/01 07:27:04;;;;;;;41.97;21.87;;;;;;;;;;5008539;28;20261;-76
2021/01/01 07:29:30;;;;;;;48.13;24.10;;;;;;;;;;5007974;28;20822;-77
2021/01/01 07:31:56;;;;;;;44.17;24.67;;;;;;;;;;5009602;28;20264;-76
2021/01/01 07:34:22;;;;;;;44.03;22.83;;;;;;;;;;5008557;28;20273;-77
2021/01/01 07:36:51;;;;;;;56.97;27.70;;;;;;;;;;5008159;28;20629;-77
2021/01/01 07:39:18;;;;;;;49.23;26.07;;;;;;;;;;5008144;28;20945;-77
2021/01/01 07:41:44;;;;;;;47.83;24.07;;;;;;;;;;5009663;28;20285;-76
2021/01/01 07:44:10;;;;;;;46.47;23.93;;;;;;;;;;5008345;28;20344;-76
2021/01/01 07:46:36;;;;;;;60.37;30.13;;;;;;;;;;5007874;28;20265;-77
2021/01/01 07:49:02;;;;;;;58.10;31.47;;;;;;;;;;5008052;28;21000;-77
2021/01/01 07:51:29;;;;;;;67.80;36.07;;;;;;;;;;5007610;28;20260;-77
2021/01/01 07:54:01;;;;;;;71.07;39.33;;;;;;;;;;5008543;28;20365;-76
2021/01/01 07:56:27;;;;;;;38.97;21.75;;;;;;;;;;5040464;28;20305;-77
2021/01/01 07:58:54;;;;;;;53.00;28.47;;;;;;;;;;5010510;28;20283;-77
2021/01/01 08:01:21;;;;;;;62.07;30.97;;;;;;;;;;5027292;28;20283;-76
2021/01/01 08:03:49;;;;;;;54.17;27.13;;;;;;;;;;5027252;28;20356;-77
2021/01/01 08:06:15;;;;;;;54.47;26.03;;;;;;;;;;5016523;28;20252;-77
2021/01/01 08:08:41;;;;;;;51.97;27.13;;;;;;;;;;5007214;28;20285;-76
2021/01/01 08:11:07;;;;;;;43.27;22.73;;;;;;;;;;5007141;28;20257;-76
2021/01/01 08:13:35;;;;;;;39.23;20.77;;;;;;;;;;5008451;28;20640;-77
2021/01/01 08:16:12;;;;;;;42.97;22.83;;;;;;;;;;5007754;28;20319;-76
2021/01/01 08:18:38;;;;;;;38.10;20.67;;;;;;;;;;5006971;28;20265;-77
2021/01/01 08:21:05;;;;;;;37.10;19.77;;;;;;;;;;5008111;28;20293;-77
2021/01/01 08:23:46;;;;;;;35.43;19.63;;;;;;;;;;5007710;28;20841;-77
2021/01/01 08:26:13;;;;;;;36.23;19.33;;;;;;;;;;5005837;28;20271;-76
2021/01/01 08:28:40;;;;;;;37.20;21.33;;;;;;;;;;5006033;28;20276;-77
2021/01/01 08:31:08;;;;;;;37.47;20.93;;;;;;;;;;5006274;28;20265;-77
2021/01/01 08:33:41;;;;;;;39.80;21.47;;;;;;;;;;5006663;28;20681;-76
2021/01/01 08:36:08;;;;;;;36.60;19.30;;;;;;;;;;5006263;28;20367;-77
2021/01/01 08:38:35;;;;;;;39.97;22.73;;;;;;;;;;5007942;28;20025;-77
2021/01/01 08:41:01;;;;;;;34.53;19.27;;;;;;;;;;4988208;28;20704;-77
2021/01/01 08:43:28;;;;;;;33.27;19.20;;;;;;;;;;4987970;28;20270;-77
2021/01/01 08:45:54;;;;;;;30.57;17.47;;;;;;;;;;4987878;28;20300;-77
2021/01/01 08:48:20;;;;;;;25.90;15.30;;;;;;;;;;4992203;28;20740;-77
2021/01/01 08:50:47;;;;;;;37.30;20.50;;;;;;;;;;5006201;28;20327;-77
2021/01/01 08:53:14;;;;;;;33.93;20.43;;;;;;;;;;5005913;28;20617;-77
2021/01/01 08:55:41;;;;;;;29.77;17.80;;;;;;;;;;5008313;28;20269;-77
2021/01/01 08:58:07;;;;;;;26.43;16.67;;;;;;;;;;5000658;28;20273;-77
2021/01/01 09:00:33;;;;;;;25.67;14.40;;;;;;;;;;5007682;28;20265;-77
2021/01/01 09:02:59;;;;;;;23.63;14.63;;;;;;;;;;5006206;28;20312;-77
2021/01/01 09:05:27;;;;;;;21.97;12.40;;;;;;;;;;5003121;28;20344;-77
2021/01/01 09:08:06;;;;;;;29.30;14.87;;;;;;;;;;5012794;28;20358;-77
2021/01/01 09:10:33;;;;;;;27.80;15.43;;;;;;;;;;5007228;28;20257;-77
2021/01/01 09:12:59;;;;;;;25.10;13.87;;;;;;;;;;5011973;28;20265;-77
2021/01/01 09:15:29;;;;;;;24.50;13.87;;;;;;;;;;5024295;28;20278;-77
2021/01/01 09:18:05;;;;;;;23.17;13.50;;;;;;;;;;5034393;28;20257;-78
2021/01/01 09:20:31;;;;;;;23.90;13.60;;;;;;;;;;5030605;28;20271;-77
2021/01/01 09:23:01;;;;;;;29.57;17.03;;;;;;;;;;5011136;28;20720;-77
2021/01/01 09:25:28;;;;;;;27.67;17.13;;;;;;;;;;5011657;28;20267;-77
2021/01/01 09:27:55;;;;;;;26.47;15.83;;;;;;;;;;5009012;28;20273;-76
2021/01/01 09:30:25;;;;;;;46.37;25.63;;;;;;;;;;5008805;28;20493;-76
2021/01/01 09:32:53;;;;;;;52.03;28.40;;;;;;;;;;5007893;28;20370;-76
2021/01/01 09:35:19;;;;;;;34.30;20.37;;;;;;;;;;5000365;28;20639;-76
2021/01/01 09:37:53;;;;;;;28.47;15.23;;;;;;;;;;5002267;28;20331;-76
2021/01/01 09:40:22;;;;;;;34.17;20.55;;;;;;;;;;5018423;28;20679;-76
2021/01/01 09:42:48;;;;;;;29.70;16.53;;;;;;;;;;5023326;28;20029;-76
2021/01/01 09:45:17;;;;;;;30.23;17.87;;;;;;;;;;5012853;28;20264;-76
2021/01/01 09:47:47;;;;;;;26.80;16.47;;;;;;;;;;5007715;28;20827;-76
2021/01/01 09:50:14;;;;;;;28.40;15.80;;;;;;;;;;5013076;28;20263;-76
2021/01/01 09:52:40;;;;;;;38.87;24.10;;;;;;;;;;5018474;28;20272;-76
2021/01/01 09:55:07;;;;;;;37.60;22.33;;;;;;;;;;5005509;28;20296;-75
2021/01/01 09:57:33;;;;;;;24.33;14.77;;;;;;;;;;5008197;28;20277;-77
2021/01/01 09:59:59;;;;;;;29.53;17.90;;;;;;;;;;5001476;28;20288;-76
2021/01/01 10:02:25;;;;;;;26.07;16.23;;;;;;;;;;5007167;28;20810;-76
2021/01/01 10:04:52;;;;;;;21.43;14.10;;;;;;;;;;4988397;28;20293;-76
2021/01/01 10:07:19;;;;;;;15.93;9.97;;;;;;;;;;5007654;28;20261;-76
2021/01/01 10:09:45;;;;;;;16.20;10.07;;;;;;;;;;5007126;28;20807;-76
2021/01/01 10:12:13;;;;;;;18.30;10.33;;;;;;;;;;5007345;28;20267;-76
2021/01/01 10:14:40;;;;;;;24.97;13.07;;;;;;;;;;5007974;28;20265;-77
2021/01/01 10:17:06;;;;;;;24.70;13.63;;;;;;;;;;5007972;28;20267;-76
2021/01/01 10:19:32;;;;;;;28.33;15.37;;;;;;;;;;5009564;28;20882;-77
2021/01/01 10:22:04;;;;;;;43.43;21.17;;;;;;;;;;5016485;28;20288;-76
2021/01/01 10:24:30;;;;;;;16.00;9.97;;;;;;;;;;5022206;28;20264;-76
2021/01/01 10:26:56;;;;;;;14.40;8.53;;;;;;;;;;5027875;28;20288;-76
2021/01/01 10:29:22;;;;;;;18.03;10.53;;;;;;;;;;5030925;28;20264;-76
2021/01/01 10:31:49;;;;;;;13.30;8.10;;;;;;;;;;4990341;28;20265;-76
2021/01/01 10:34:15;;;;;;;13.90;9.00;;;;;;;;;;5014007;28;20273;-76
2021/01/01 10:36:42;;;;;;;22.80;15.03;;;;;;;;;;5010383;28;20731;-77
2021/01/01 10:39:09;;;;;;;16.77;10.37;;;;;;;;;;5006077;28;20289;-77
2021/01/01 10:41:36;;;;;;;12.70;7.23;;;;;;;;;;4991108;28;20293;-77
2021/01/01 10:44:03;;;;;;;11.90;7.47;;;;;;;;;;4990712;28;20673;-76
2021/01/01 10:46:29;;;;;;;14.93;9.43;;;;;;;;;;4988834;28;20260;-76
2021/01/01 10:48:55;;;;;;;17.00;10.70;;;;;;;;;;5016734;28;20268;-76
2021/01/01 10:51:22;;;;;;;14.83;8.53;;;;;;;;;;5017354;28;20277;-76
2021/01/01 10:53:48;;;;;;;12.23;7.43;;;;;;;;;;5007748;28;20335;-76
2021/01/01 10:56:24;;;;;;;13.00;6.60;;;;;;;;;;4991786;28;20281;-76
2021/01/01 10:58:50;;;;;;;12.00;6.80;;;;;;;;;;4990026;28;20775;-76
2021/01/01 11:01:23;;;;;;;11.83;7.53;;;;;;;;;;4989695;28;20347;-76
2021/01/01 11:03:50;;;;;;;20.45;12.98;;;;;;;;;;5004306;28;20356;-76
2021/01/01 11:06:16;;;;;;;12.97;8.13;;;;;;;;;;5016066;28;20034;-76
2021/01/01 11:08:43;;;;;;;14.90;8.37;;;;;;;;;;5007847;28;20617;-75
2021/01/01 11:11:13;;;;;;;13.30;7.70;;;;;;;;;;5010771;28;20264;-75
2021/01/01 11:13:49;;;;;;;10.83;6.77;;;;;;;;;;5024985;28;20371;-76
2021/01/01 12:25:10;;;;;;;13.13;8.23;;;;;;;;;;4997217;28;20285;-77
2021/01/01 12:27:36;;;;;;;10.77;7.20;;;;;;;;;;5025362;28;20264;-77
2021/01/01 12:30:10;;;;;;;12.03;7.20;;;;;;;;;;5032109;28;20321;-77
2021/01/01 12:32:39;;;;;;;17.35;10.50;;;;;;;;;;4993245;28;20262;-77
2021/01/01 12:35:06;;;;;;;11.07;7.03;;;;;;;;;;5000317;28;20041;-77
2021/01/01 12:37:32;;;;;;;13.03;8.63;;;;;;;;;;5009663;28;20683;-77
2021/01/01 12:39:58;;;;;;;9.83;6.07;;;;;;;;;;5007892;28;20267;-77
2021/01/01 12:42:24;;;;;;;11.00;6.83;;;;;;;;;;5010098;28;20304;-77
2021/01/01 12:44:50;;;;;;;9.10;5.83;;;;;;;;;;5013679;28;20261;-80
2021/01/01 12:47:16;;;;;;;12.60;7.37;;;;;;;;;;5012561;28;20347;-77
2021/01/01 12:49:45;;;;;;;13.87;9.03;;;;;;;;;;5011934;28;20365;-77
2021/01/01 12:52:11;;;;;;;12.30;8.07;;;;;;;;;;5000941;28;21033;-77
2021/01/01 12:54:37;;;;;;;15.10;8.67;;;;;;;;;;5009239;28;20309;-77
2021/01/01 12:57:07;;;;;;;13.73;7.97;;;;;;;;;;5015320;28;20265;-77
2021/01/01 12:59:33;;;;;;;10.53;6.87;;;;;;;;;;5056287;28;20283;-77
2021/01/01 13:01:59;;;;;;;12.43;7.73;;;;;;;;;;5051107;28;20338;-77
2021/01/01 13:04:26;;;;;;;12.90;9.47;;;;;;;;;;5044978;28;20832;-77
2021/01/01 13:06:52;;;;;;;12.17;7.70;;;;;;;;;;5008494;28;20303;-77
2021/01/01 13:09:18;;;;;;;23.50;12.87;;;;;;;;;;5012806;28;20303;-77
2021/01/01 13:11:47;;;;;;;22.63;11.77;;;;;;;;;;5004646;28;20928;-77
2021/01/01 13:14:16;;;;;;;16.40;9.73;;;;;;;;;;5011681;28;20299;-77
2021/01/01 13:16:43;;;;;;;28.23;16.23;;;;;;;;;;5030617;28;20330;-77
2021/01/01 13:19:09;;;;;;;14.23;9.23;;;;;;;;;;5018577;28;20273;-77
2021/01/01 13:21:36;;;;;;;12.77;9.07;;;;;;;;;;5012008;28;20760;-76
2021/01/01 13:24:03;;;;;;;13.90;9.47;;;;;;;;;;5010132;28;21060;-76
2021/01/01 13:26:30;;;;;;;14.00;9.07;;;;;;;;;;5010763;28;20284;-77
2021/01/01 13:28:56;;;;;;;10.83;8.73;;;;;;;;;;5010617;28;20268;-77
2021/01/01 13:31:23;;;;;;;11.60;7.87;;;;;;;;;;5026317;28;20289;-76
2021/01/01 13:33:52;;;;;;;10.10;6.60;;;;;;;;;;5014613;28;20284;-78
2021/01/01 13:36:19;;;;;;;10.80;7.10;;;;;;;;;;5011792;28;20277;-77
2021/01/01 13:38:45;;;;;;;12.50;8.40;;;;;;;;;;5011491;28;20261;-76
2021/01/01 13:41:13;;;;;;;10.57;7.40;;;;;;;;;;5011199;28;20284;-77
2021/01/01 13:43:43;;;;;;;11.53;7.40;;;;;;;;;;5008887;28;20273;-77
2021/01/01 13:46:09;;;;;;;12.10;7.47;;;;;;;;;;4990681;28;20365;-77
2021/01/01 13:48:36;;;;;;;10.10;6.47;;;;;;;;;;5000900;28;21231;-77
2021/01/01 13:51:02;;;;;;;9.90;6.37;;;;;;;;;;5010475;28;20326;-77
2021/01/01 13:53:28;;;;;;;11.50;7.03;;;;;;;;;;5010266;28;20292;-77
2021/01/01 13:55:54;;;;;;;10.50;6.80;;;;;;;;;;5029817;28;20702;-77
2021/01/01 13:58:24;;;;;;;11.00;7.07;;;;;;;;;;5017531;28;20279;-77
2021/01/01 14:00:51;;;;;;;13.17;7.97;;;;;;;;;;5035238;28;20288;-77
2021/01/01 14:03:18;;;;;;;11.73;7.53;;;;;;;;;;5009548;28;20553;-75
2021/01/01 14:05:44;;;;;;;12.57;7.80;;;;;;;;;;5011033;28;20268;-77
2021/01/01 14:08:10;;;;;;;11.40;8.17;;;;;;;;;;5009872;28;20308;-77
2021/01/01 14:10:36;;;;;;;11.77;8.13;;;;;;;;;;5010532;28;20779;-77
2021/01/01 14:13:02;;;;;;;11.57;7.67;;;;;;;;;;5025770;28;20300;-76
2021/01/01 14:15:28;;;;;;;16.80;10.70;;;;;;;;;;5010610;28;20301;-77
2021/01/01 14:17:54;;;;;;;18.40;12.00;;;;;;;;;;5010771;28;20270;-77
2021/01/01 14:20:20;;;;;;;24.47;14.53;;;;;;;;;;5001390;28;20802;-77
2021/01/01 14:22:46;;;;;;;16.03;10.67;;;;;;;;;;4999786;28;20308;-77
2021/01/01 14:25:13;;;;;;;13.63;8.53;;;;;;;;;;5042611;28;20816;-77
2021/01/01 14:27:39;;;;;;;17.63;10.10;;;;;;;;;;5044652;28;20260;-77
2021/01/01 14:30:05;;;;;;;22.17;14.83;;;;;;;;;;5030184;28;20283;-77
2021/01/01 14:32:31;;;;;;;15.37;10.17;;;;;;;;;;5019431;28;20279;-77
2021/01/01 14:34:57;;;;;;;11.90;7.77;;;;;;;;;;5006077;28;20269;-76
2021/01/01 14:37:23;;;;;;;13.30;8.17;;;;;;;;;;4988955;28;20348;-76
2021/01/01 14:39:50;;;;;;;32.83;19.83;;;;;;;;;;5015592;28;20283;-76
2021/01/01 14:42:16;;;;;;;47.47;29.73;;;;;;;;;;5014600;28;20289;-76
2021/01/01 14:44:42;;;;;;;25.83;14.63;;;;;;;;;;5015295;28;20394;-76
2021/01/01 14:47:09;;;;;;;38.27;20.03;;;;;;;;;;5028462;28;20685;-76
2021/01/01 14:49:35;;;;;;;22.63;13.10;;;;;;;;;;5025251;28;20348;-75
2021/01/01 14:52:01;;;;;;;39.93;21.97;;;;;;;;;;5007976;28;20300;-76
2021/01/01 14:54:28;;;;;;;15.73;9.13;;;;;;;;;;5009919;28;20371;-77
2021/01/01 14:56:54;;;;;;;15.27;9.07;;;;;;;;;;5008966;28;20273;-76
2021/01/01 14:59:20;;;;;;;61.00;29.27;;;;;;;;;;5009574;28;20358;-76
2021/01/01 15:01:46;;;;;;;97.50;49.70;;;;;;;;;;5012471;28;20764;-79
2021/01/01 15:04:13;;;;;;;32.60;19.17;;;;;;;;;;5015941;28;20281;-77
2021/01/01 15:06:39;;;;;;;125.27;60.63;;;;;;;;;;5028767;28;20311;-76
2021/01/01 15:09:05;;;;;;;79.47;42.40;;;;;;;;;;5030148;28;20285;-77
2021/01/01 15:11:31;;;;;;;40.70;22.33;;;;;;;;;;5027062;28;20261;-76
2021/01/01 15:13:57;;;;;;;21.33;12.43;;;;;;;;;;5032974;28;20754;-76
2021/01/01 15:16:23;;;;;;;17.20;10.40;;;;;;;;;;5014854;28;20281;-76
2021/01/01 15:18:49;;;;;;;15.63;9.73;;;;;;;;;;5014751;28;20261;-77
2021/01/01 15:21:17;;;;;;;38.27;22.20;;;;;;;;;;5018551;28;20303;-77
2021/01/01 15:23:44;;;;;;;18.73;11.73;;;;;;;;;;5030356;28;20292;-77
2021/01/01 15:26:16;;;;;;;31.03;17.37;;;;;;;;;;5023368;28;20820;-77
2021/01/01 15:28:42;;;;;;;20.57;13.33;;;;;;;;;;5015338;28;20276;-78
2021/01/01 15:31:08;;;;;;;21.17;13.27;;;;;;;;;;5010466;28;20279;-77
2021/01/01 15:33:34;;;;;;;18.13;11.33;;;;;;;;;;5013040;28;20283;-77